Time;durP1;ratioP1;P1;durP2;ratioP2;P2;SDS_P1;SDS_P2;PMS_P1;PMS_P2;Temp;Humidity;BMP_temperature;BMP_pressure;BME280_temperature;BME280_humidity;BME280_pressure;Samples;Min_cycle;Max_cycle;Signal;HPM_P1;HPM_P2
2021/06/27 00:01:13;;;;;;;25.13;18.23;;;16.90;99.90;;;;;;5118100;27;20032;-60
2021/06/27 00:03:39;;;;;;;27.83;19.58;;;16.90;99.90;;;;;;5101364;27;20414;-60
2021/06/27 00:06:06;;;;;;;28.65;19.20;;;16.90;99.90;;;;;;5111819;27;20471;-63
2021/06/27 00:08:32;;;;;;;29.23;20.25;;;16.80;99.90;;;;;;5117958;27;20049;-65
2021/06/27 00:10:59;;;;;;;35.38;21.42;;;16.80;99.90;;;;;;5115019;27;20418;-63
2021/06/27 00:13:28;;;;;;;31.10;20.45;;;16.80;99.90;;;;;;5132733;27;20015;-63
2021/06/27 00:15:55;;;;;;;33.40;21.00;;;16.80;99.90;;;;;;5115976;27;20114;-62
2021/06/27 00:18:24;;;;;;;31.70;20.73;;;16.80;99.90;;;;;;5112972;27;20081;-63
2021/06/27 00:20:52;;;;;;;28.50;20.08;;;16.70;99.90;;;;;;5112856;27;20034;-63
2021/06/27 00:23:20;;;;;;;25.50;19.08;;;16.70;99.90;;;;;;5094708;28;20028;-62
2021/06/27 00:25:47;;;;;;;28.00;18.73;;;16.70;99.90;;;;;;5114466;27;20023;-60
2021/06/27 00:28:14;;;;;;;30.13;19.80;;;16.70;99.90;;;;;;5113905;27;20087;-62
2021/06/27 00:30:41;;;;;;;29.13;19.45;;;16.70;99.90;;;;;;5116905;27;20027;-62
2021/06/27 00:33:06;;;;;;;26.77;20.25;;;16.70;99.90;;;;;;5112300;27;20054;-61
2021/06/27 00:35:33;;;;;;;29.00;18.25;;;16.70;99.90;;;;;;5126790;27;20053;-63
2021/06/27 00:37:59;;;;;;;25.80;17.38;;;16.70;99.90;;;;;;5114041;27;20452;-62
2021/06/27 00:40:28;;;;;;;26.23;18.65;;;16.70;99.90;;;;;;5121877;27;20065;-63
2021/06/27 00:42:54;;;;;;;27.48;18.77;;;16.70;99.90;;;;;;5119191;27;20111;-62
2021/06/27 00:45:22;;;;;;;26.45;18.58;;;16.60;99.90;;;;;;5115554;27;20028;-63
2021/06/27 00:47:48;;;;;;;27.27;19.13;;;16.60;99.90;;;;;;5113119;27;20035;-61
2021/06/27 00:50:23;;;;;;;30.27;18.85;;;16.60;99.90;;;;;;5116130;27;20039;-62
2021/06/27 00:52:50;;;;;;;26.92;18.65;;;16.60;99.90;;;;;;5105340;27;20024;-62
2021/06/27 00:55:17;;;;;;;25.80;17.40;;;16.50;99.90;;;;;;5110578;28;20584;-62
2021/06/27 00:57:43;;;;;;;31.35;19.13;;;16.40;99.90;;;;;;5119749;27;20015;-63
2021/06/27 01:00:13;;;;;;;29.25;18.08;;;16.40;99.90;;;;;;5110529;27;20019;-61
2021/06/27 01:02:38;;;;;;;25.60;18.20;;;16.40;99.90;;;;;;5111579;27;20038;-62
2021/06/27 01:05:08;;;;;;;25.25;18.13;;;16.40;99.90;;;;;;5122410;27;20023;-62
2021/06/27 01:07:33;;;;;;;25.25;18.25;;;16.30;99.90;;;;;;5116969;27;20563;-62
2021/06/27 01:09:59;;;;;;;22.73;18.30;;;16.30;99.90;;;;;;5117683;27;20035;-64
2021/06/27 01:12:24;;;;;;;29.38;20.13;;;16.30;99.90;;;;;;5130522;27;20027;-63
2021/06/27 01:14:50;;;;;;;31.08;19.77;;;16.20;99.90;;;;;;5117436;27;20466;-62
2021/06/27 01:17:16;;;;;;;27.70;19.83;;;16.20;99.90;;;;;;5112450;27;20035;-63
2021/06/27 01:19:41;;;;;;;26.08;20.10;;;16.20;99.90;;;;;;5116827;27;20031;-63
2021/06/27 01:22:07;;;;;;;29.10;21.83;;;16.20;99.90;;;;;;5116695;27;20032;-62
2021/06/27 01:24:33;;;;;;;30.35;22.58;;;16.20;99.90;;;;;;5110838;28;20027;-63
2021/06/27 01:26:58;;;;;;;35.58;22.13;;;16.10;99.90;;;;;;5127443;27;20028;-62
2021/06/27 01:29:24;;;;;;;26.70;21.42;;;16.10;99.90;;;;;;5125479;27;20028;-62
2021/06/27 01:31:50;;;;;;;26.60;21.17;;;16.10;99.90;;;;;;5120113;27;20031;-62
2021/06/27 01:34:16;;;;;;;29.88;19.58;;;16.10;99.90;;;;;;5113147;27;20403;-60
2021/06/27 01:36:42;;;;;;;28.70;20.45;;;16.20;99.90;;;;;;5118401;27;20027;-61
2021/06/27 01:39:08;;;;;;;26.98;19.33;;;16.20;99.90;;;;;;5131469;27;20026;-63
2021/06/27 01:41:33;;;;;;;30.75;19.92;;;16.20;99.90;;;;;;5118269;27;20024;-63
2021/06/27 01:43:59;;;;;;;27.83;20.73;;;16.10;99.90;;;;;;5118529;27;20053;-65
2021/06/27 01:46:24;;;;;;;25.75;19.73;;;16.00;99.90;;;;;;5115288;27;20043;-60
2021/06/27 01:48:50;;;;;;;22.83;18.00;;;16.00;99.90;;;;;;5114404;27;20328;-62
2021/06/27 01:51:16;;;;;;;27.38;18.63;;;16.00;99.90;;;;;;5112359;28;20490;-63
2021/06/27 01:53:43;;;;;;;22.08;18.10;;;16.00;99.90;;;;;;5112291;28;20031;-63
2021/06/27 01:56:08;;;;;;;23.65;16.38;;;15.90;99.90;;;;;;5116306;27;20055;-63
2021/06/27 01:58:37;;;;;;;21.35;16.92;;;15.90;99.90;;;;;;5118758;27;20051;-64
2021/06/27 02:01:09;;;;;;;22.23;16.67;;;15.80;99.90;;;;;;5116863;27;20020;-62
2021/06/27 02:03:36;;;;;;;28.60;18.05;;;15.80;99.90;;;;;;5123769;27;20468;-62
2021/06/27 02:06:02;;;;;;;24.73;16.33;;;15.80;99.90;;;;;;5120284;27;20424;-61
2021/06/27 02:08:35;;;;;;;26.30;16.98;;;15.70;99.90;;;;;;5122723;27;20031;-60
2021/06/27 02:11:03;;;;;;;20.88;15.57;;;15.80;99.90;;;;;;5112536;28;20123;-61
2021/06/27 02:13:28;;;;;;;20.50;15.55;;;15.80;99.90;;;;;;5111900;28;20028;-64
2021/06/27 02:15:54;;;;;;;22.27;16.08;;;15.80;99.90;;;;;;5111909;28;20160;-61
2021/06/27 02:18:34;;;;;;;21.45;16.00;;;15.80;99.90;;;;;;5123241;28;20072;-61
2021/06/27 02:21:06;;;;;;;22.58;16.75;;;15.80;99.90;;;;;;5120164;28;20035;-63
2021/06/27 02:23:32;;;;;;;20.73;15.55;;;15.70;99.90;;;;;;5114466;28;20032;-62
2021/06/27 02:25:59;;;;;;;22.73;16.20;;;15.70;99.90;;;;;;5111216;28;20528;-61
2021/06/27 02:28:25;;;;;;;23.10;17.13;;;15.70;99.90;;;;;;5114514;28;20036;-61
2021/06/27 02:30:50;;;;;;;22.98;16.25;;;15.80;99.90;;;;;;5111491;28;20030;-61
2021/06/27 02:33:18;;;;;;;24.65;18.08;;;15.90;99.90;;;;;;5111836;28;20058;-63
2021/06/27 02:35:44;;;;;;;22.92;15.63;;;15.80;99.90;;;;;;5114035;28;20558;-64
2021/06/27 02:38:10;;;;;;;21.85;16.02;;;15.80;99.90;;;;;;5111543;28;20402;-61
2021/06/27 02:40:36;;;;;;;25.42;16.38;;;15.80;99.90;;;;;;5114696;28;20034;-62
2021/06/27 02:43:02;;;;;;;20.85;16.25;;;15.80;99.90;;;;;;5116410;28;20026;-60
2021/06/27 02:45:27;;;;;;;23.77;16.02;;;15.80;99.90;;;;;;5095572;28;20034;-61
2021/06/27 02:47:53;;;;;;;26.15;14.70;;;15.90;99.90;;;;;;5114156;28;20097;-61
2021/06/27 02:50:19;;;;;;;19.85;14.18;;;15.90;99.90;;;;;;5107502;28;20049;-63
2021/06/27 02:52:45;;;;;;;20.60;14.65;;;15.90;99.90;;;;;;5117160;28;20027;-63
2021/06/27 02:55:12;;;;;;;18.60;15.13;;;15.90;99.90;;;;;;5111354;28;20051;-63
2021/06/27 02:57:39;;;;;;;20.27;14.80;;;15.90;99.90;;;;;;5111864;28;20080;-64
2021/06/27 03:00:07;;;;;;;21.40;14.95;;;16.00;99.90;;;;;;5111337;28;20051;-64
2021/06/27 03:02:33;;;;;;;19.85;14.25;;;16.00;99.90;;;;;;5111713;28;20047;-64
2021/06/27 03:04:58;;;;;;;20.30;15.88;;;15.90;99.90;;;;;;5111290;28;20494;-64
2021/06/27 03:07:24;;;;;;;21.50;15.02;;;15.90;99.90;;;;;;5096737;22;20064;-58
2021/06/27 03:09:50;;;;;;;28.52;16.77;;;15.80;99.90;;;;;;5049837;28;20032;-60
2021/06/27 03:12:15;;;;;;;20.95;16.02;;;15.80;99.90;;;;;;5048198;28;20036;-61
2021/06/27 03:14:41;;;;;;;30.25;15.70;;;15.80;99.90;;;;;;5049134;28;20037;-60
2021/06/27 03:17:06;;;;;;;21.77;15.48;;;15.80;99.90;;;;;;5048560;28;20084;-62
2021/06/27 03:19:32;;;;;;;18.42;15.25;;;15.90;99.90;;;;;;5048607;28;20025;-58
2021/06/27 03:21:58;;;;;;;22.98;14.98;;;15.90;99.90;;;;;;5050365;28;20025;-61
2021/06/27 03:24:23;;;;;;;20.55;13.60;;;15.90;99.90;;;;;;5051121;28;20028;-61
2021/06/27 03:26:49;;;;;;;17.15;13.32;;;16.00;99.90;;;;;;5033017;28;20021;-62
2021/06/27 03:29:14;;;;;;;19.63;13.45;;;16.10;99.90;;;;;;5052078;28;20032;-61
2021/06/27 03:31:40;;;;;;;19.13;14.60;;;16.20;99.90;;;;;;5051926;28;20031;-62
2021/06/27 03:34:06;;;;;;;21.65;14.85;;;16.30;99.90;;;;;;5050532;28;20044;-61
2021/06/27 03:36:31;;;;;;;20.65;15.00;;;16.30;99.90;;;;;;5033373;28;20442;-61
2021/06/27 03:39:08;;;;;;;20.98;14.52;;;16.30;99.90;;;;;;5050875;28;20087;-60
2021/06/27 03:41:39;;;;;;;21.55;14.60;;;16.30;99.90;;;;;;5050866;28;20051;-59
2021/06/27 03:44:05;;;;;;;19.08;13.98;;;16.40;99.90;;;;;;5050700;28;20136;-61
2021/06/27 03:46:30;;;;;;;22.55;14.80;;;16.40;99.90;;;;;;5051283;28;20472;-61
2021/06/27 03:48:56;;;;;;;21.20;14.50;;;16.50;99.90;;;;;;5050945;28;20045;-61
2021/06/27 03:51:22;;;;;;;21.55;13.80;;;16.50;99.90;;;;;;5051324;28;20051;-61
2021/06/27 03:53:47;;;;;;;19.45;13.88;;;16.50;99.90;;;;;;5032535;28;20021;-61
2021/06/27 03:56:15;;;;;;;20.40;13.30;;;16.50;99.90;;;;;;5050535;28;20462;-60
2021/06/27 03:58:41;;;;;;;20.95;14.52;;;16.60;99.90;;;;;;5051555;28;20345;-61
2021/06/27 04:01:07;;;;;;;16.75;13.75;;;16.60;99.90;;;;;;5051072;28;20025;-60
2021/06/27 04:03:32;;;;;;;16.67;13.88;;;16.60;99.90;;;;;;5044173;28;20036;-61
2021/06/27 04:05:58;;;;;;;16.73;13.88;;;16.60;99.90;;;;;;5050518;28;20044;-61
2021/06/27 04:08:23;;;;;;;21.00;14.82;;;16.70;99.90;;;;;;5050379;28;20036;-60
2021/06/27 04:10:49;;;;;;;22.83;13.50;;;16.70;99.90;;;;;;5050801;28;20064;-60
2021/06/27 04:13:14;;;;;;;18.52;14.35;;;16.70;99.90;;;;;;5050617;28;20025;-61
2021/06/27 04:15:40;;;;;;;19.35;13.00;;;16.70;99.90;;;;;;5050018;28;20099;-59
2021/06/27 04:18:09;;;;;;;17.35;13.63;;;16.70;99.90;;;;;;5050965;28;20021;-62
2021/06/27 04:20:34;;;;;;;21.23;13.13;;;16.70;99.90;;;;;;5049974;28;20029;-62
2021/06/27 04:23:00;;;;;;;15.80;11.77;;;16.80;99.90;;;;;;5050290;28;20044;-64
2021/06/27 04:25:25;;;;;;;16.15;13.52;;;16.80;99.90;;;;;;5047870;28;20040;-62
2021/06/27 04:27:51;;;;;;;20.15;13.77;;;16.80;99.90;;;;;;5050031;28;20036;-59
2021/06/27 04:30:17;;;;;;;20.05;14.38;;;16.90;99.90;;;;;;5050394;28;20570;-60
2021/06/27 04:32:42;;;;;;;21.88;13.88;;;16.90;99.90;;;;;;5032083;28;20032;-62
2021/06/27 04:35:08;;;;;;;22.65;13.77;;;16.90;99.90;;;;;;5049503;28;20118;-62
2021/06/27 04:37:35;;;;;;;17.55;14.13;;;16.90;99.90;;;;;;5050363;28;20036;-61
2021/06/27 04:40:01;;;;;;;15.88;12.00;;;17.00;99.90;;;;;;5050179;28;20028;-61
2021/06/27 04:42:27;;;;;;;19.67;14.00;;;17.00;99.90;;;;;;5049646;28;20070;-62
2021/06/27 04:44:52;;;;;;;17.02;12.60;;;17.00;99.90;;;;;;5049313;28;20049;-59
2021/06/27 04:47:18;;;;;;;18.25;13.95;;;17.00;99.90;;;;;;5049802;28;20033;-62
2021/06/27 04:49:43;;;;;;;18.48;13.43;;;17.10;99.90;;;;;;5050351;28;20040;-61
2021/06/27 04:52:10;;;;;;;17.77;14.05;;;17.00;99.90;;;;;;5050407;28;20029;-62
2021/06/27 04:54:37;;;;;;;20.60;14.13;;;17.00;99.90;;;;;;5049320;28;20029;-60
2021/06/27 04:57:03;;;;;;;19.65;13.95;;;17.00;99.90;;;;;;5049978;28;20109;-62
2021/06/27 04:59:29;;;;;;;17.23;13.07;;;17.00;99.90;;;;;;5049676;28;20025;-62
2021/06/27 05:01:55;;;;;;;17.55;13.43;;;17.00;99.90;;;;;;5031804;28;20400;-62
2021/06/27 05:04:20;;;;;;;21.83;14.77;;;17.00;99.90;;;;;;5049040;28;20485;-60
2021/06/27 05:06:46;;;;;;;19.17;14.05;;;17.00;99.90;;;;;;5049803;28;20389;-60
2021/06/27 05:09:11;;;;;;;17.30;13.63;;;17.00;99.90;;;;;;5049436;28;20061;-60
2021/06/27 05:11:37;;;;;;;19.77;13.80;;;17.00;99.90;;;;;;5049055;28;20032;-61
2021/06/27 05:14:02;;;;;;;18.45;12.88;;;17.00;99.90;;;;;;5049668;28;20174;-62
2021/06/27 05:16:28;;;;;;;18.02;13.85;;;17.10;99.90;;;;;;5049174;28;20029;-61
2021/06/27 05:18:54;;;;;;;18.83;13.82;;;17.20;99.90;;;;;;5049420;28;20112;-60
2021/06/27 05:21:19;;;;;;;18.50;13.82;;;17.20;99.90;;;;;;5049778;28;20110;-60
2021/06/27 05:23:45;;;;;;;22.30;13.32;;;17.20;99.90;;;;;;5049075;28;20021;-60
2021/06/27 05:26:10;;;;;;;20.25;14.32;;;17.30;99.90;;;;;;5049095;28;20044;-64
2021/06/27 05:28:36;;;;;;;16.95;13.77;;;17.30;99.90;;;;;;5048818;28;20025;-62
2021/06/27 05:31:02;;;;;;;14.60;12.95;;;17.40;99.90;;;;;;5049226;28;20032;-64
2021/06/27 05:33:27;;;;;;;20.15;13.65;;;17.50;99.90;;;;;;5048773;28;20039;-62
2021/06/27 05:35:53;;;;;;;19.08;12.88;;;17.50;99.90;;;;;;5048805;28;20057;-63
2021/06/27 05:38:18;;;;;;;18.73;13.02;;;17.70;99.90;;;;;;5030963;28;20029;-63
2021/06/27 05:40:44;;;;;;;17.73;13.10;;;17.80;99.90;;;;;;5048263;28;20040;-63
2021/06/27 05:43:10;;;;;;;19.13;13.30;;;17.80;99.90;;;;;;5048270;28;20574;-62
2021/06/27 05:45:35;;;;;;;16.77;13.10;;;17.90;99.90;;;;;;5048468;28;20033;-62
2021/06/27 05:48:01;;;;;;;14.30;12.45;;;18.10;99.90;;;;;;5030199;28;20479;-62
2021/06/27 05:50:26;;;;;;;17.70;13.63;;;18.20;99.90;;;;;;5048876;28;20025;-62
2021/06/27 05:52:52;;;;;;;16.92;12.15;;;18.30;99.90;;;;;;5048495;28;20037;-61
2021/06/27 05:55:17;;;;;;;15.02;12.02;;;18.50;99.90;;;;;;5048882;28;20021;-61
2021/06/27 05:57:43;;;;;;;18.52;12.65;;;18.60;99.90;;;;;;5049272;28;20480;-59
2021/06/27 06:00:09;;;;;;;17.67;11.73;;;18.70;99.90;;;;;;5043457;28;20041;-60
2021/06/27 06:02:35;;;;;;;16.85;12.32;;;18.80;99.90;;;;;;5048967;28;20415;-61
2021/06/27 06:05:00;;;;;;;18.02;11.80;;;18.90;99.90;;;;;;5048330;28;20040;-60
2021/06/27 06:07:26;;;;;;;15.07;11.80;;;19.00;99.90;;;;;;5048199;28;20068;-62
2021/06/27 06:09:51;;;;;;;16.95;12.70;;;19.00;99.90;;;;;;5048751;28;20044;-61
2021/06/27 06:12:17;;;;;;;15.45;12.50;;;19.10;99.90;;;;;;5046774;28;20033;-62
2021/06/27 06:14:42;;;;;;;17.77;11.70;;;19.10;99.90;;;;;;5041830;28;20041;-62
2021/06/27 06:17:08;;;;;;;15.43;12.23;;;19.10;99.90;;;;;;5048122;28;20207;-59
2021/06/27 06:19:34;;;;;;;15.07;12.38;;;19.20;99.90;;;;;;5047471;28;20029;-60
2021/06/27 06:21:59;;;;;;;16.40;12.57;;;19.30;99.90;;;;;;5047568;28;20043;-60
2021/06/27 06:24:25;;;;;;;16.98;11.82;;;19.30;99.90;;;;;;5048396;28;20098;-61
2021/06/27 06:26:50;;;;;;;15.02;11.68;;;19.40;99.90;;;;;;5043537;28;20108;-61
2021/06/27 06:29:16;;;;;;;16.58;12.73;;;19.50;99.90;;;;;;5043448;28;20026;-62
2021/06/27 06:31:41;;;;;;;15.38;12.00;;;19.60;99.90;;;;;;5046819;28;20064;-63
2021/06/27 06:34:07;;;;;;;20.10;12.25;;;19.70;99.90;;;;;;5045435;28;20036;-60
2021/06/27 06:36:33;;;;;;;15.45;11.70;;;19.70;99.90;;;;;;5046935;28;20029;-60
2021/06/27 06:38:58;;;;;;;13.43;10.85;;;19.80;99.90;;;;;;5029593;28;20029;-62
2021/06/27 06:41:24;;;;;;;16.65;11.80;;;19.90;99.90;;;;;;5050058;28;20021;-62
2021/06/27 06:43:50;;;;;;;13.00;10.15;;;19.90;99.90;;;;;;5046804;28;20029;-60
2021/06/27 06:46:15;;;;;;;16.90;12.32;;;20.00;99.90;;;;;;5052399;28;20074;-61
2021/06/27 06:48:41;;;;;;;17.33;11.32;;;20.10;99.90;;;;;;5030199;28;20021;-63
2021/06/27 06:51:07;;;;;;;17.65;11.60;;;20.30;99.90;;;;;;5048746;28;20117;-61
2021/06/27 06:53:33;;;;;;;14.65;10.68;;;20.40;99.90;;;;;;5047839;28;20036;-61
2021/06/27 06:55:59;;;;;;;15.80;11.93;;;20.60;99.90;;;;;;5047766;28;20022;-62
2021/06/27 06:58:28;;;;;;;15.45;12.77;;;20.70;99.90;;;;;;5051300;28;20100;-63
2021/06/27 07:00:55;;;;;;;18.35;12.05;;;20.80;99.90;;;;;;5049572;28;20033;-62
2021/06/27 07:03:20;;;;;;;14.15;11.18;;;20.80;99.90;;;;;;5049802;28;20033;-65
2021/06/27 07:05:46;;;;;;;12.68;10.88;;;20.90;99.90;;;;;;5049582;28;20036;-63
2021/06/27 07:08:11;;;;;;;13.52;11.73;;;20.90;99.90;;;;;;5051392;28;20040;-63
2021/06/27 07:10:37;;;;;;;17.30;12.18;;;21.00;99.90;;;;;;5048822;28;20025;-63
2021/06/27 07:13:02;;;;;;;15.23;11.27;;;21.00;99.90;;;;;;5049418;28;20134;-62
2021/06/27 07:15:28;;;;;;;15.75;11.50;;;21.00;99.90;;;;;;5049407;28;20044;-60
2021/06/27 07:17:54;;;;;;;18.83;11.93;;;21.00;99.90;;;;;;5047570;28;20530;-63
2021/06/27 07:20:19;;;;;;;18.20;10.82;;;21.00;99.90;;;;;;5047700;28;20163;-63
2021/06/27 07:22:45;;;;;;;17.40;10.95;;;21.00;99.90;;;;;;5047992;28;20346;-61
2021/06/27 07:25:11;;;;;;;15.98;10.85;;;21.10;99.90;;;;;;5048067;28;20099;-62
2021/06/27 07:27:37;;;;;;;15.93;10.00;;;21.10;99.90;;;;;;5043651;28;20033;-62
2021/06/27 07:30:05;;;;;;;17.38;10.48;;;21.20;99.90;;;;;;5050758;28;20048;-60
2021/06/27 07:32:31;;;;;;;14.57;10.95;;;21.20;99.90;;;;;;5048569;28;20546;-62
2021/06/27 07:34:56;;;;;;;14.35;10.05;;;21.40;99.90;;;;;;5049158;28;20068;-63
2021/06/27 07:37:22;;;;;;;15.27;10.98;;;21.40;99.90;;;;;;5053708;28;20025;-62
2021/06/27 07:39:47;;;;;;;14.32;10.45;;;21.60;99.90;;;;;;5051626;28;20049;-62
2021/06/27 07:42:13;;;;;;;12.05;10.18;;;21.70;99.90;;;;;;5051313;28;20488;-62
2021/06/27 07:44:38;;;;;;;12.82;10.18;;;21.80;99.90;;;;;;5050458;28;20032;-63
2021/06/27 07:47:04;;;;;;;15.02;10.75;;;21.90;99.90;;;;;;5051023;28;20036;-61
2021/06/27 07:49:30;;;;;;;15.90;11.25;;;22.00;99.90;;;;;;5049121;28;20028;-62
2021/06/27 07:51:56;;;;;;;14.82;10.73;;;22.10;99.90;;;;;;5048747;28;20033;-64
2021/06/27 07:54:21;;;;;;;12.02;9.40;;;22.20;99.90;;;;;;5053766;28;20051;-64
2021/06/27 07:56:47;;;;;;;12.38;9.57;;;22.20;99.90;;;;;;5047081;28;20099;-64
2021/06/27 07:59:14;;;;;;;11.98;10.45;;;22.30;99.90;;;;;;5050448;28;20108;-64
2021/06/27 08:01:40;;;;;;;12.50;9.68;;;22.40;99.90;;;;;;5047994;28;20017;-65
2021/06/27 08:04:05;;;;;;;15.15;10.77;;;22.40;99.90;;;;;;5048508;28;20025;-65
2021/06/27 08:06:31;;;;;;;11.80;9.93;;;22.50;99.90;;;;;;5048447;28;20064;-60
2021/06/27 08:08:56;;;;;;;11.27;10.07;;;22.50;99.90;;;;;;5048121;28;20083;-64
2021/06/27 08:11:22;;;;;;;11.77;9.73;;;22.60;99.90;;;;;;5049136;28;20061;-63
2021/06/27 08:13:48;;;;;;;16.38;11.18;;;22.60;99.90;;;;;;5047232;28;20138;-64
2021/06/27 08:16:13;;;;;;;20.20;10.82;;;22.70;99.90;;;;;;5048303;28;20104;-64
2021/06/27 08:18:39;;;;;;;14.73;10.18;;;22.70;99.90;;;;;;5051137;28;20369;-64
2021/06/27 08:21:05;;;;;;;27.23;11.48;;;22.80;99.90;;;;;;5033355;28;20336;-62
2021/06/27 08:23:30;;;;;;;17.70;12.23;;;22.90;99.90;;;;;;5044274;28;20115;-63
2021/06/27 08:25:56;;;;;;;16.42;10.48;;;23.10;99.90;;;;;;5042874;28;20024;-63
2021/06/27 08:28:21;;;;;;;36.17;13.48;;;23.20;99.90;;;;;;5050324;28;20054;-64
2021/06/27 08:30:47;;;;;;;11.90;9.90;;;23.30;99.90;;;;;;5048070;28;20025;-64
2021/06/27 08:33:13;;;;;;;15.38;9.85;;;23.50;99.90;;;;;;5050326;28;20111;-64
2021/06/27 08:35:40;;;;;;;20.27;11.38;;;23.60;99.90;;;;;;5029148;28;20424;-64
2021/06/27 08:38:06;;;;;;;29.52;11.73;;;23.80;99.90;;;;;;5044780;28;20049;-63
2021/06/27 08:40:32;;;;;;;26.23;12.02;;;23.80;99.90;;;;;;5046928;28;20028;-63
2021/06/27 08:42:59;;;;;;;15.50;10.45;;;23.90;99.90;;;;;;5043059;28;20035;-62
2021/06/27 08:45:26;;;;;;;12.43;9.90;;;23.90;99.90;;;;;;5048786;28;20075;-61
2021/06/27 08:47:54;;;;;;;12.13;9.15;;;23.90;99.90;;;;;;5014178;28;20041;-63
2021/06/27 08:50:21;;;;;;;13.93;9.93;;;24.00;99.90;;;;;;5030531;28;20092;-60
2021/06/27 08:52:47;;;;;;;15.18;10.15;;;24.10;99.90;;;;;;5048808;28;20377;-62
2021/06/27 08:55:14;;;;;;;15.40;10.60;;;24.20;99.90;;;;;;5047691;28;20025;-63
2021/06/27 08:57:42;;;;;;;13.07;9.35;;;24.20;99.90;;;;;;5049825;28;20029;-61
2021/06/27 09:00:09;;;;;;;15.05;10.00;;;24.20;99.90;;;;;;5048111;28;20111;-65
2021/06/27 09:02:35;;;;;;;10.40;8.60;;;24.40;99.90;;;;;;5045454;28;20057;-66
2021/06/27 09:05:01;;;;;;;11.15;9.77;;;24.50;99.90;;;;;;5053098;28;20064;-65
2021/06/27 09:07:31;;;;;;;16.23;8.95;;;24.50;99.90;;;;;;5050578;28;20032;-65
2021/06/27 09:10:09;;;;;;;11.00;7.80;;;24.60;99.90;;;;;;5067907;22;20016;-61
2021/06/27 09:12:47;;;;;;;13.15;9.90;;;24.80;99.90;;;;;;5058956;28;20116;-62
2021/06/27 09:15:14;;;;;;;10.75;7.75;;;24.80;99.90;;;;;;5061367;28;20078;-60
2021/06/27 09:17:44;;;;;;;9.57;8.38;;;25.00;99.90;;;;;;5060733;28;20028;-64
2021/06/27 09:20:11;;;;;;;10.30;9.05;;;25.10;99.90;;;;;;5071234;28;20034;-62
2021/06/27 09:22:42;;;;;;;9.80;8.27;;;25.20;99.90;;;;;;5087430;28;20449;-61
2021/06/27 09:25:14;;;;;;;8.75;7.95;;;25.40;99.90;;;;;;5090358;28;20016;-61
2021/06/27 09:27:40;;;;;;;10.93;8.52;;;25.50;99.90;;;;;;5084839;28;20047;-61
2021/06/27 09:30:13;;;;;;;10.45;8.10;;;25.60;99.90;;;;;;5078556;28;20111;-63
2021/06/27 09:32:50;;;;;;;9.35;8.35;;;25.70;99.90;;;;;;5086037;28;20024;-61
2021/06/27 09:35:41;;;;;;;8.05;7.30;;;25.90;99.90;;;;;;5082110;28;20507;-63
2021/06/27 09:38:39;;;;;;;15.90;8.38;;;26.10;99.90;;;;;;5085188;28;20024;-61
2021/06/27 09:41:46;;;;;;;10.15;7.93;;;26.00;99.90;;;;;;5063651;28;20123;-62
2021/06/27 09:44:14;;;;;;;15.75;8.35;;;26.10;99.90;;;;;;5050547;28;20072;-62
2021/06/27 09:46:42;;;;;;;10.82;8.38;;;26.20;99.90;;;;;;5080565;28;20086;-62
2021/06/27 09:49:10;;;;;;;7.38;6.60;;;26.40;99.90;;;;;;5090209;28;20032;-59
2021/06/27 09:51:37;;;;;;;7.78;7.00;;;26.50;99.90;;;;;;5089341;28;20028;-60
2021/06/27 09:54:15;;;;;;;7.57;6.88;;;26.70;99.90;;;;;;5089581;28;20032;-61
2021/06/27 09:56:41;;;;;;;7.82;7.03;;;26.80;99.90;;;;;;5092359;28;20487;-60
2021/06/27 09:59:09;;;;;;;8.10;7.30;;;26.80;99.90;;;;;;5092163;28;20028;-59
2021/06/27 10:01:36;;;;;;;10.27;7.22;;;26.90;99.90;;;;;;5088002;28;20051;-60
2021/06/27 10:04:05;;;;;;;7.70;7.00;;;27.10;99.90;;;;;;5091304;28;20056;-59
2021/06/27 10:06:51;;;;;;;6.95;6.25;;;27.30;99.90;;;;;;5073225;28;20024;-62
2021/06/27 10:09:27;;;;;;;9.15;7.38;;;27.30;99.90;;;;;;5090646;28;20536;-60
2021/06/27 10:12:04;;;;;;;9.10;6.35;;;27.50;99.90;;;;;;5089046;28;20380;-61
2021/06/27 10:14:33;;;;;;;7.05;6.35;;;27.40;99.90;;;;;;5086703;28;20020;-62
2021/06/27 10:17:05;;;;;;;8.48;7.45;;;27.60;99.90;;;;;;5087039;28;20597;-60
2021/06/27 10:19:30;;;;;;;8.95;6.75;;;27.50;99.90;;;;;;5090639;28;20833;-62
2021/06/27 10:21:58;;;;;;;8.43;6.47;;;27.70;99.90;;;;;;5088611;28;20028;-62
2021/06/27 10:24:25;;;;;;;9.25;7.57;;;27.80;99.90;;;;;;5081375;28;20056;-61
2021/06/27 10:26:51;;;;;;;8.32;6.70;;;28.00;99.90;;;;;;5088043;28;20150;-59
2021/06/27 10:29:19;;;;;;;8.77;7.55;;;28.10;99.90;;;;;;5084577;28;20028;-61
2021/06/27 10:31:46;;;;;;;13.27;7.47;;;28.10;99.90;;;;;;5091653;28;20102;-59
2021/06/27 10:34:12;;;;;;;8.50;6.20;;;28.10;99.90;;;;;;5092071;28;20084;-62
2021/06/27 10:36:41;;;;;;;7.20;6.13;;;28.30;99.90;;;;;;5091946;28;20024;-61
2021/06/27 10:39:15;;;;;;;7.53;6.82;;;28.40;99.90;;;;;;5090914;28;20445;-61
2021/06/27 10:42:01;;;;;;;7.22;6.57;;;28.60;99.90;;;;;;5084692;28;20085;-58
2021/06/27 10:44:30;;;;;;;7.15;6.45;;;28.30;99.90;;;;;;5088054;28;20028;-61
2021/06/27 10:46:58;;;;;;;7.03;6.07;;;28.20;99.90;;;;;;5092148;28;20032;-60
2021/06/27 10:49:33;;;;;;;7.05;6.18;;;28.10;99.90;;;;;;5088390;28;20058;-61
2021/06/27 10:52:12;;;;;;;7.63;6.82;;;28.40;99.90;;;;;;5093891;28;20116;-60
2021/06/27 10:54:39;;;;;;;8.35;6.55;;;28.60;99.90;;;;;;5087982;28;20028;-60
2021/06/27 10:57:09;;;;;;;7.65;6.93;;;28.60;99.90;;;;;;5086578;28;20486;-61
2021/06/27 10:59:55;;;;;;;8.32;6.90;;;28.60;99.90;;;;;;5087679;28;20028;-61
2021/06/27 11:02:37;;;;;;;6.20;5.57;;;28.90;99.90;;;;;;5093453;28;20039;-60
2021/06/27 11:05:37;;;;;;;9.48;6.40;;;29.20;99.90;;;;;;5073366;28;20031;-60
2021/06/27 11:08:04;;;;;;;6.35;5.65;;;28.90;99.90;;;;;;5037208;28;20040;-58
2021/06/27 11:10:32;;;;;;;7.32;6.63;;;29.00;99.90;;;;;;5087820;28;20032;-58
2021/06/27 11:12:58;;;;;;;10.85;6.53;;;29.20;99.90;;;;;;5088641;28;20035;-57
2021/06/27 11:15:38;;;;;;;7.53;6.07;;;29.20;99.90;;;;;;5088487;28;20027;-59
2021/06/27 11:18:06;;;;;;;6.75;6.15;;;29.50;99.90;;;;;;5086542;28;20059;-58
2021/06/27 11:20:48;;;;;;;7.85;6.32;;;29.40;99.90;;;;;;5088557;28;20058;-61
2021/06/27 11:23:16;;;;;;;7.38;6.53;;;29.30;99.90;;;;;;5093584;28;20039;-58
2021/06/27 11:25:46;;;;;;;7.20;6.38;;;28.80;99.90;;;;;;5087795;28;20033;-59
2021/06/27 11:28:21;;;;;;;7.60;6.75;;;28.50;99.90;;;;;;5090952;28;20036;-61
2021/06/27 11:30:53;;;;;;;6.45;5.85;;;28.40;99.90;;;;;;5088443;28;20028;-59
2021/06/27 11:33:25;;;;;;;6.07;5.57;;;28.80;99.90;;;;;;5086596;28;20028;-60
2021/06/27 11:35:59;;;;;;;6.80;6.13;;;28.90;99.90;;;;;;5083920;28;20111;-58
2021/06/27 11:38:40;;;;;;;6.38;5.75;;;28.80;99.90;;;;;;5072832;28;20020;-60
2021/06/27 11:41:30;;;;;;;6.03;5.53;;;28.80;99.90;;;;;;5082820;28;20024;-60
2021/06/27 11:43:56;;;;;;;6.07;5.53;;;28.80;99.90;;;;;;5090233;28;20032;-60
2021/06/27 11:46:26;;;;;;;6.20;5.25;;;28.80;99.90;;;;;;5084391;28;20030;-57
2021/06/27 11:48:51;;;;;;;6.43;5.70;;;28.50;99.90;;;;;;5090920;28;20032;-60
2021/06/27 11:51:17;;;;;;;6.47;4.35;;;28.30;99.90;;;;;;5086828;28;20081;-60
2021/06/27 11:53:44;;;;;;;5.82;5.25;;;28.40;99.90;;;;;;5089972;28;20431;-58
2021/06/27 11:56:12;;;;;;;5.43;4.88;;;28.20;99.90;;;;;;5089892;28;20069;-61
2021/06/27 11:58:37;;;;;;;5.95;4.97;;;28.30;99.90;;;;;;5090834;28;20056;-60
2021/06/27 12:01:09;;;;;;;6.18;5.60;;;28.60;99.90;;;;;;5090463;28;20060;-61
2021/06/27 12:03:45;;;;;;;6.22;5.30;;;28.80;99.90;;;;;;5091556;28;20417;-60
2021/06/27 12:06:11;;;;;;;6.32;5.38;;;28.80;99.90;;;;;;5092297;28;20024;-62
2021/06/27 12:08:42;;;;;;;6.53;5.85;;;28.60;99.90;;;;;;5091273;28;20213;-61
2021/06/27 12:11:08;;;;;;;5.20;4.72;;;28.40;99.90;;;;;;5090326;28;20089;-61
2021/06/27 12:13:35;;;;;;;5.90;4.88;;;28.20;99.90;;;;;;5075087;28;20024;-62
2021/06/27 12:16:01;;;;;;;8.32;4.55;;;28.40;99.90;;;;;;5089195;28;20123;-59
2021/06/27 12:18:29;;;;;;;9.00;4.53;;;28.40;99.90;;;;;;5091267;28;20515;-59
2021/06/27 12:20:59;;;;;;;5.13;4.63;;;28.60;99.90;;;;;;5089873;28;20028;-61
2021/06/27 12:23:55;;;;;;;6.35;5.07;;;28.90;99.90;;;;;;5092269;28;20024;-60
2021/06/27 12:26:21;;;;;;;11.98;5.53;;;29.00;99.90;;;;;;5085995;28;20032;-61
2021/06/27 12:28:54;;;;;;;13.40;5.68;;;29.00;99.90;;;;;;5084092;28;20024;-58
2021/06/27 12:31:24;;;;;;;7.90;5.20;;;28.90;99.90;;;;;;5070246;28;20024;-59
2021/06/27 12:34:01;;;;;;;8.48;5.10;;;29.00;99.90;;;;;;5085156;28;20114;-58
2021/06/27 12:36:33;;;;;;;4.82;4.43;;;29.00;99.90;;;;;;5089356;28;20020;-60